Time;durP1;ratioP1;P1;durP2;ratioP2;P2;SDS_P1;SDS_P2;PMS_P1;PMS_P2;Temp;Humidity;BMP_temperature;BMP_pressure;BME280_temperature;BME280_humidity;BME280_pressure;Samples;Min_cycle;Max_cycle;Signal;HPM_P1;HPM_P2
2021/12/03 00:00:57;;;;;;;7.78;1.70;;;-1.00;99.90;;;;;;5050607;28;20538;-71
2021/12/03 00:03:24;;;;;;;3.55;1.10;;;-1.00;99.90;;;;;;5049184;28;20036;-69
2021/12/03 00:05:52;;;;;;;5.72;1.13;;;-0.80;99.90;;;;;;4696255;28;9999873;-69
2021/12/03 00:08:18;;;;;;;11.45;1.20;;;-1.00;99.90;;;;;;5050220;28;20036;-68
2021/12/03 00:10:49;;;;;;;7.60;1.45;;;;;;;;;;5049918;28;20535;-69
2021/12/03 00:13:14;;;;;;;17.92;1.67;;;-1.00;99.90;;;;;;5051222;28;20470;-67
2021/12/03 00:15:40;;;;;;;4.97;1.60;;;-0.20;99.90;;;;;;5049925;28;20071;-68
2021/12/03 00:18:06;;;;;;;5.65;0.95;;;-0.90;99.90;;;;;;5042910;28;20030;-68
2021/12/03 00:20:36;;;;;;;6.18;1.40;;;;;;;;;;5030989;28;20569;-70
2021/12/03 00:23:04;;;;;;;11.43;1.40;;;-1.00;99.90;;;;;;5033111;28;20112;-69
2021/12/03 00:25:30;;;;;;;15.90;2.00;;;;;;;;;;5033262;28;20032;-69
2021/12/03 00:27:56;;;;;;;9.77;1.83;;;0.00;99.90;;;;;;5050641;28;20025;-68
2021/12/03 00:30:21;;;;;;;5.45;1.48;;;-1.50;99.90;;;;;;5051447;28;20437;-66
2021/12/03 00:32:48;;;;;;;4.88;1.55;;;-1.00;99.90;;;;;;5052648;28;20108;-68
2021/12/03 00:35:15;;;;;;;7.47;1.88;;;-1.50;99.90;;;;;;5052719;28;20029;-68
2021/12/03 00:37:42;;;;;;;4.93;1.25;;;-1.00;99.90;;;;;;5053196;28;20021;-67
2021/12/03 00:40:11;;;;;;;5.43;1.10;;;-0.90;99.90;;;;;;5050343;28;20033;-71
2021/12/03 00:42:38;;;;;;;10.98;1.35;;;-1.00;99.90;;;;;;5032610;28;20033;-68
2021/12/03 00:45:06;;;;;;;11.77;1.20;;;-1.00;99.90;;;;;;5044410;28;20036;-68
2021/12/03 00:47:31;;;;;;;6.25;1.88;;;-1.00;99.90;;;;;;5052960;28;20029;-67
2021/12/03 00:49:57;;;;;;;3.15;1.05;;;-1.00;99.90;;;;;;5051631;28;20514;-68
2021/12/03 00:52:22;;;;;;;14.30;1.30;;;-0.90;99.90;;;;;;5052460;28;20029;-70
2021/12/03 00:54:49;;;;;;;7.28;1.50;;;-1.00;99.90;;;;;;5052263;28;20046;-70
2021/12/03 00:57:15;;;;;;;5.53;1.48;;;-1.00;99.90;;;;;;5052107;28;20032;-68
2021/12/03 00:59:40;;;;;;;6.32;1.50;;;-0.70;99.90;;;;;;5051871;28;20351;-67
2021/12/03 01:02:06;;;;;;;8.65;1.27;;;-0.90;99.90;;;;;;5052290;28;20413;-68
2021/12/03 01:04:32;;;;;;;9.73;2.58;;;-0.90;99.90;;;;;;5052462;28;20523;-68
2021/12/03 01:06:58;;;;;;;13.10;2.45;;;;;;;;;;5052064;28;20033;-69
2021/12/03 01:09:23;;;;;;;3.25;1.40;;;-0.80;99.90;;;;;;5052373;28;20032;-70
2021/12/03 01:11:50;;;;;;;9.40;1.25;;;-0.70;99.90;;;;;;5051626;28;20116;-68
2021/12/03 01:14:18;;;;;;;7.85;1.15;;;-0.80;99.90;;;;;;5052011;28;20039;-70
2021/12/03 01:16:44;;;;;;;9.32;1.23;;;-0.70;99.90;;;;;;5051640;28;20074;-71
2021/12/03 01:19:10;;;;;;;10.68;2.08;;;-0.70;99.90;;;;;;5033878;28;20091;-71
2021/12/03 01:21:37;;;;;;;10.57;3.60;;;-0.70;99.90;;;;;;5052077;28;20032;-70
2021/12/03 01:24:03;;;;;;;18.05;1.50;;;-0.70;99.90;;;;;;5051787;28;20112;-68
2021/12/03 01:26:30;;;;;;;7.45;1.50;;;-0.70;99.90;;;;;;5051396;28;20029;-67
2021/12/03 01:28:55;;;;;;;12.50;2.03;;;-0.80;99.90;;;;;;5051596;28;20108;-68
2021/12/03 01:31:21;;;;;;;12.23;1.85;;;-0.80;99.90;;;;;;5051701;28;20112;-68
2021/12/03 01:33:47;;;;;;;9.05;1.17;;;-0.80;99.90;;;;;;5051548;28;20025;-68
2021/12/03 01:36:14;;;;;;;4.38;1.27;;;-0.80;99.90;;;;;;5051706;28;20025;-69
2021/12/03 01:38:40;;;;;;;7.10;1.63;;;-0.90;99.90;;;;;;5051468;28;20043;-68
2021/12/03 01:41:07;;;;;;;9.45;1.35;;;-0.90;99.90;;;;;;5051836;28;20045;-68
2021/12/03 01:43:32;;;;;;;6.05;1.70;;;-0.90;99.90;;;;;;5051193;28;20029;-68
2021/12/03 01:46:01;;;;;;;4.28;2.28;;;-0.90;99.90;;;;;;5051254;28;20085;-68
2021/12/03 01:48:27;;;;;;;4.47;1.58;;;-0.90;99.90;;;;;;5051619;28;20064;-68
2021/12/03 01:50:53;;;;;;;15.35;1.80;;;-0.90;99.90;;;;;;5051666;28;20375;-67
2021/12/03 01:53:22;;;;;;;7.35;1.20;;;-0.90;99.90;;;;;;5051741;28;20320;-66
2021/12/03 01:55:50;;;;;;;8.75;1.60;;;-0.90;99.90;;;;;;5033024;28;20040;-68
2021/12/03 01:58:16;;;;;;;4.25;1.55;;;-0.90;99.90;;;;;;5051459;28;20491;-69
2021/12/03 02:00:53;;;;;;;3.95;1.30;;;-0.90;99.90;;;;;;5050727;28;20021;-68
2021/12/03 02:03:21;;;;;;;8.13;2.60;;;-0.70;99.90;;;;;;5051543;28;20130;-67
2021/12/03 02:05:47;;;;;;;5.28;1.90;;;-0.80;99.90;;;;;;5051099;28;20037;-68
2021/12/03 02:08:13;;;;;;;3.90;1.63;;;-0.90;99.90;;;;;;5051463;28;20431;-68
2021/12/03 02:10:40;;;;;;;11.70;1.75;;;-0.90;99.90;;;;;;5051190;28;20033;-68
2021/12/03 02:13:06;;;;;;;2.55;1.50;;;-0.90;99.90;;;;;;5054097;28;20100;-67
2021/12/03 02:15:32;;;;;;;3.92;1.90;;;-0.90;99.90;;;;;;5055084;28;20445;-68
2021/12/03 02:17:58;;;;;;;4.90;1.50;;;-0.90;99.90;;;;;;5055039;28;20025;-68
2021/12/03 02:20:25;;;;;;;7.90;1.98;;;-0.90;99.90;;;;;;5037376;28;20111;-68
2021/12/03 02:22:51;;;;;;;9.27;1.95;;;-0.90;99.90;;;;;;5054984;28;20546;-69
2021/12/03 02:25:20;;;;;;;11.10;1.80;;;-0.90;99.90;;;;;;5054867;28;20060;-68
2021/12/03 02:27:49;;;;;;;9.38;1.92;;;-0.80;99.90;;;;;;5055265;28;20399;-68
2021/12/03 02:30:15;;;;;;;11.05;1.40;;;-0.80;99.90;;;;;;5055853;28;20414;-68
2021/12/03 02:32:40;;;;;;;5.40;1.92;;;-0.70;99.90;;;;;;5054363;28;20537;-69
2021/12/03 02:35:07;;;;;;;6.90;1.95;;;-0.80;99.90;;;;;;5053503;28;20041;-68
2021/12/03 02:37:33;;;;;;;6.45;2.28;;;-0.80;99.90;;;;;;5036798;28;20025;-69
2021/12/03 02:39:58;;;;;;;8.40;1.60;;;-0.70;99.90;;;;;;5054680;28;20028;-68
2021/12/03 02:42:24;;;;;;;5.60;1.45;;;-0.80;99.90;;;;;;5055011;28;20060;-68
2021/12/03 02:44:50;;;;;;;6.22;1.50;;;-0.80;99.90;;;;;;5054622;28;20041;-68
2021/12/03 02:47:16;;;;;;;7.05;1.58;;;-0.80;99.90;;;;;;5054654;28;20059;-68
2021/12/03 02:49:42;;;;;;;12.15;1.98;;;-0.80;99.90;;;;;;5054574;28;20032;-68
2021/12/03 02:52:09;;;;;;;10.45;2.00;;;-0.90;99.90;;;;;;5054582;28;20032;-70
2021/12/03 02:54:36;;;;;;;5.63;1.75;;;-0.50;99.90;;;;;;5060625;28;20048;-68
2021/12/03 02:57:03;;;;;;;13.30;3.20;;;-0.80;99.90;;;;;;5064522;28;20076;-68
2021/12/03 02:59:31;;;;;;;9.77;2.05;;;-0.70;99.90;;;;;;5064245;28;20036;-70
2021/12/03 03:01:57;;;;;;;9.27;2.95;;;-0.70;99.90;;;;;;5062178;28;20021;-67
2021/12/03 03:04:23;;;;;;;12.68;2.35;;;-0.80;99.90;;;;;;5060921;28;20100;-67
2021/12/03 03:06:49;;;;;;;11.13;2.08;;;-0.80;99.90;;;;;;5037024;28;20021;-70
2021/12/03 03:09:15;;;;;;;3.70;1.80;;;-0.90;99.90;;;;;;5036177;28;20029;-67
2021/12/03 03:11:40;;;;;;;6.88;2.17;;;-1.00;99.90;;;;;;5054260;28;20083;-67
2021/12/03 03:14:06;;;;;;;12.63;3.85;;;-1.10;99.90;;;;;;5054550;28;20032;-68
2021/12/03 03:16:34;;;;;;;8.27;2.05;;;-1.10;99.90;;;;;;5053266;28;20028;-68
2021/12/03 03:19:05;;;;;;;9.30;3.17;;;-1.10;99.90;;;;;;5054184;28;20113;-69
2021/12/03 03:21:31;;;;;;;6.40;1.83;;;-1.10;99.90;;;;;;5054344;28;20009;-67
2021/12/03 03:23:56;;;;;;;6.47;1.70;;;-1.10;99.90;;;;;;5036048;28;20025;-68
2021/12/03 03:26:23;;;;;;;9.63;2.17;;;-1.00;99.90;;;;;;5053542;28;20033;-68
2021/12/03 03:28:48;;;;;;;4.45;2.00;;;-1.50;99.90;;;;;;5053801;28;20017;-67
2021/12/03 03:31:14;;;;;;;6.68;2.13;;;-1.10;99.90;;;;;;5054091;28;20059;-68
2021/12/03 03:33:39;;;;;;;7.57;2.10;;;-0.70;99.90;;;;;;5053863;28;20437;-69
2021/12/03 03:36:05;;;;;;;7.20;1.90;;;-1.30;99.90;;;;;;5053497;28;20036;-68
2021/12/03 03:38:31;;;;;;;8.45;2.28;;;-1.30;99.90;;;;;;5036129;28;20108;-66
2021/12/03 03:40:56;;;;;;;8.57;1.92;;;-1.20;99.90;;;;;;5055151;28;20029;-68
2021/12/03 03:43:22;;;;;;;5.47;1.83;;;-1.20;99.90;;;;;;5036067;28;20021;-68
2021/12/03 03:45:49;;;;;;;6.55;1.85;;;-1.20;99.90;;;;;;5057030;28;20101;-69
2021/12/03 03:48:15;;;;;;;11.13;1.95;;;-1.00;99.90;;;;;;5054494;28;20029;-69
2021/12/03 03:50:41;;;;;;;3.50;1.60;;;-1.20;99.90;;;;;;5054591;28;20033;-70
2021/12/03 03:53:07;;;;;;;10.05;2.10;;;-1.30;99.90;;;;;;5055020;28;20086;-71
2021/12/03 03:55:33;;;;;;;9.60;1.83;;;-1.30;99.90;;;;;;5054201;28;20029;-69
2021/12/03 03:58:01;;;;;;;5.07;1.75;;;-1.20;99.90;;;;;;5054667;28;20028;-69
2021/12/03 04:00:33;;;;;;;3.78;1.70;;;-1.20;99.90;;;;;;5054528;28;20036;-70
2021/12/03 04:02:59;;;;;;;9.82;2.22;;;-1.10;99.90;;;;;;5035989;28;20060;-64
2021/12/03 04:05:25;;;;;;;5.35;1.63;;;-1.30;99.90;;;;;;5053424;28;20087;-68
2021/12/03 04:07:51;;;;;;;5.13;1.60;;;-1.10;99.90;;;;;;5037204;28;20182;-69
2021/12/03 04:10:16;;;;;;;9.60;2.03;;;-1.10;99.90;;;;;;5054291;28;20055;-68
2021/12/03 04:12:42;;;;;;;5.07;2.30;;;-1.10;99.90;;;;;;5057292;28;20032;-69
2021/12/03 04:15:10;;;;;;;5.95;1.75;;;-0.90;99.90;;;;;;5058221;28;20036;-71
2021/12/03 04:17:36;;;;;;;4.30;1.90;;;-1.60;99.90;;;;;;5041551;28;20029;-67
2021/12/03 04:20:03;;;;;;;3.40;1.85;;;-0.60;99.90;;;;;;5060329;28;20044;-69
2021/12/03 04:22:31;;;;;;;7.13;1.83;;;0.00;99.90;;;;;;5057128;28;20060;-68
2021/12/03 04:24:56;;;;;;;5.60;1.90;;;-0.70;99.90;;;;;;5053696;28;20021;-67
2021/12/03 04:27:22;;;;;;;9.50;1.73;;;-0.70;99.90;;;;;;5051979;28;20025;-71
2021/12/03 04:29:48;;;;;;;9.18;1.70;;;-0.70;99.90;;;;;;5053431;28;20029;-69
2021/12/03 04:32:14;;;;;;;10.90;2.00;;;-0.60;99.90;;;;;;5052997;28;20029;-69
2021/12/03 04:34:40;;;;;;;5.45;1.15;;;-0.90;99.90;;;;;;5052595;28;20048;-70
2021/12/03 04:37:06;;;;;;;6.40;1.58;;;-0.70;99.90;;;;;;5053015;28;20483;-69
2021/12/03 04:39:31;;;;;;;5.65;1.63;;;-0.50;99.90;;;;;;5052987;28;20401;-69
2021/12/03 04:41:57;;;;;;;4.03;1.33;;;-0.40;99.90;;;;;;5052844;28;20538;-69
2021/12/03 04:44:23;;;;;;;6.88;1.70;;;-0.60;99.90;;;;;;5052016;28;20029;-70
2021/12/03 04:46:48;;;;;;;5.22;1.58;;;-0.50;99.90;;;;;;5050264;28;20044;-68
2021/12/03 04:49:14;;;;;;;6.65;1.77;;;-0.50;99.90;;;;;;5052378;28;20033;-69
2021/12/03 04:51:40;;;;;;;11.38;2.05;;;-0.40;99.90;;;;;;5052738;28;20025;-69
2021/12/03 04:54:05;;;;;;;8.85;1.73;;;-0.80;99.90;;;;;;5052502;28;20025;-70
2021/12/03 04:56:31;;;;;;;4.65;1.60;;;-0.30;99.90;;;;;;5034381;28;20112;-73
2021/12/03 04:58:57;;;;;;;7.00;1.33;;;;;;;;;;4355377;22;10000827;-71
2021/12/03 05:01:22;;;;;;;2.78;1.30;;;-0.30;99.90;;;;;;5009067;28;20033;-72
2021/12/03 05:03:48;;;;;;;2.45;1.38;;;;;;;;;;5009642;28;20041;-71
2021/12/03 05:06:16;;;;;;;3.33;1.38;;;-0.20;99.90;;;;;;4991124;28;20033;-70
2021/12/03 05:08:42;;;;;;;6.32;1.20;;;-0.10;99.90;;;;;;5009759;28;20109;-70
2021/12/03 05:11:09;;;;;;;4.43;1.52;;;;;;;;;;5009093;28;20034;-69
2021/12/03 05:13:36;;;;;;;3.63;1.35;;;0.00;99.90;;;;;;5009838;28;20496;-69
2021/12/03 05:16:03;;;;;;;7.38;1.23;;;0.10;99.90;;;;;;4991712;28;20045;-70
2021/12/03 05:18:30;;;;;;;7.22;1.77;;;0.00;99.90;;;;;;5009292;28;20476;-71
2021/12/03 05:20:59;;;;;;;5.75;1.25;;;0.20;99.90;;;;;;5009317;28;20049;-69
2021/12/03 05:23:26;;;;;;;3.08;1.30;;;0.10;99.90;;;;;;5008078;28;20018;-68
2021/12/03 05:25:52;;;;;;;4.80;1.27;;;1.00;99.90;;;;;;5017671;28;20163;-70
2021/12/03 05:28:18;;;;;;;4.28;1.25;;;0.00;99.90;;;;;;5014177;28;20022;-68
2021/12/03 05:30:44;;;;;;;4.80;1.40;;;0.00;99.90;;;;;;5023007;28;20121;-70
2021/12/03 05:33:09;;;;;;;2.38;1.20;;;-0.30;99.90;;;;;;5009696;28;20034;-70
2021/12/03 05:35:36;;;;;;;4.53;1.52;;;-0.20;99.90;;;;;;5009127;28;20045;-71
2021/12/03 05:38:02;;;;;;;3.72;1.58;;;0.30;99.90;;;;;;5009330;28;20037;-71
2021/12/03 05:40:28;;;;;;;6.07;1.30;;;0.20;99.90;;;;;;5009236;28;20026;-70
2021/12/03 05:42:54;;;;;;;7.30;1.50;;;0.80;99.90;;;;;;5009352;28;20048;-71
2021/12/03 05:45:23;;;;;;;3.78;1.52;;;0.20;99.90;;;;;;5008672;28;20076;-71
2021/12/03 05:47:49;;;;;;;3.15;1.50;;;-0.30;99.90;;;;;;5008696;28;20113;-69
2021/12/03 05:50:16;;;;;;;10.27;1.40;;;0.30;99.90;;;;;;5008750;28;20392;-69
2021/12/03 05:52:42;;;;;;;11.63;1.88;;;;;;;;;;5009552;28;20062;-70
2021/12/03 05:55:09;;;;;;;4.90;1.50;;;0.20;99.90;;;;;;5008525;28;20072;-71
2021/12/03 05:57:35;;;;;;;8.55;1.80;;;-0.30;99.90;;;;;;5008025;28;20026;-69
2021/12/03 06:00:01;;;;;;;6.90;2.13;;;0.10;99.90;;;;;;5005660;28;20507;-70
2021/12/03 06:02:27;;;;;;;5.20;1.70;;;0.00;99.90;;;;;;4993110;28;20030;-70
2021/12/03 06:04:53;;;;;;;6.32;1.65;;;;;;;;;;4993176;28;20498;-70
2021/12/03 06:07:19;;;;;;;7.75;1.65;;;;;;;;;;5011220;28;20018;-70
2021/12/03 06:09:45;;;;;;;5.03;1.67;;;0.10;99.90;;;;;;5012048;28;20066;-70
2021/12/03 06:12:11;;;;;;;5.35;2.00;;;0.00;99.90;;;;;;5011425;28;20108;-69
2021/12/03 06:14:36;;;;;;;5.72;1.95;;;-0.10;99.90;;;;;;5011031;28;20114;-70
2021/12/03 06:17:02;;;;;;;4.43;1.85;;;0.90;99.90;;;;;;5011623;28;20045;-68
2021/12/03 06:19:28;;;;;;;5.20;2.45;;;0.10;99.90;;;;;;5015028;28;20490;-70
2021/12/03 06:21:53;;;;;;;4.05;1.88;;;0.10;99.90;;;;;;5011904;28;20511;-70
2021/12/03 06:24:19;;;;;;;6.13;1.95;;;0.00;99.90;;;;;;5011142;28;20026;-69
2021/12/03 06:26:45;;;;;;;6.43;2.25;;;-0.10;99.90;;;;;;5011301;28;20023;-69
2021/12/03 06:29:10;;;;;;;3.38;1.77;;;0.00;99.90;;;;;;5012699;28;20107;-70
2021/12/03 06:31:36;;;;;;;4.43;1.95;;;0.20;99.90;;;;;;5011570;28;20022;-68
2021/12/03 06:34:02;;;;;;;4.60;1.80;;;0.10;99.90;;;;;;5012317;28;20090;-69
2021/12/03 06:36:28;;;;;;;7.05;2.28;;;-0.30;99.90;;;;;;5011761;28;20357;-71
2021/12/03 06:38:53;;;;;;;6.75;2.60;;;0.30;99.90;;;;;;5012540;28;20045;-69
2021/12/03 06:41:19;;;;;;;4.38;2.70;;;0.20;99.90;;;;;;4994358;28;20030;-70
2021/12/03 06:43:45;;;;;;;6.18;1.98;;;0.10;99.90;;;;;;5012156;28;20062;-69
2021/12/03 06:46:10;;;;;;;12.40;3.22;;;0.30;99.90;;;;;;4993940;28;20399;-70
2021/12/03 06:48:36;;;;;;;13.38;3.17;;;0.00;99.90;;;;;;5011119;28;20026;-70
2021/12/03 06:51:02;;;;;;;6.85;3.60;;;0.20;99.90;;;;;;5011551;28;20097;-69
2021/12/03 06:53:39;;;;;;;7.80;4.10;;;0.10;99.90;;;;;;5013936;28;20076;-69
2021/12/03 06:56:05;;;;;;;7.43;2.30;;;0.30;99.90;;;;;;5014125;28;20502;-71
2021/12/03 06:58:31;;;;;;;5.50;2.65;;;0.30;99.90;;;;;;5014752;28;20026;-71
2021/12/03 07:00:59;;;;;;;9.68;2.83;;;;;;;;;;5015120;28;20024;-70
2021/12/03 07:03:25;;;;;;;7.95;4.03;;;0.40;99.90;;;;;;5015066;28;20106;-71
2021/12/03 07:05:50;;;;;;;4.60;3.13;;;0.30;99.90;;;;;;5014404;28;20062;-70
2021/12/03 07:08:16;;;;;;;6.32;2.75;;;0.40;99.90;;;;;;5001866;28;20091;-71
2021/12/03 07:10:42;;;;;;;11.57;3.80;;;0.40;99.90;;;;;;5009668;28;20057;-70
2021/12/03 07:13:08;;;;;;;6.53;3.42;;;0.50;99.90;;;;;;5010344;28;20022;-69
2021/12/03 07:15:34;;;;;;;9.55;3.13;;;0.80;99.90;;;;;;5000272;28;20065;-71
2021/12/03 07:17:59;;;;;;;9.15;3.47;;;0.60;99.90;;;;;;4993278;28;20058;-71
2021/12/03 07:20:26;;;;;;;8.05;3.15;;;0.70;99.90;;;;;;5008938;28;20037;-69
2021/12/03 07:22:52;;;;;;;7.50;3.97;;;0.80;99.90;;;;;;5004695;28;20073;-69
2021/12/03 07:25:18;;;;;;;6.57;4.10;;;0.80;99.90;;;;;;5009569;28;20049;-68
2021/12/03 07:27:44;;;;;;;10.50;3.40;;;0.70;99.90;;;;;;5009844;28;20172;-72
2021/12/03 07:30:13;;;;;;;7.57;3.17;;;1.00;99.90;;;;;;5008385;28;20060;-68
2021/12/03 07:32:39;;;;;;;8.27;3.92;;;;;;;;;;4995790;28;20084;-69
2021/12/03 07:35:06;;;;;;;7.28;3.65;;;1.00;99.90;;;;;;5005895;28;20116;-70
2021/12/03 07:37:32;;;;;;;12.98;4.10;;;1.10;99.90;;;;;;4992885;28;20037;-70
2021/12/03 07:40:01;;;;;;;7.13;4.03;;;1.00;99.90;;;;;;5005398;28;20468;-69
2021/12/03 07:42:27;;;;;;;10.48;3.50;;;1.20;99.90;;;;;;5007584;28;20018;-69
2021/12/03 07:44:53;;;;;;;9.00;3.92;;;;;;;;;;5007272;28;20500;-69
2021/12/03 07:47:19;;;;;;;6.07;4.75;;;;;;;;;;5008725;28;20154;-69
2021/12/03 07:49:48;;;;;;;6.35;4.30;;;;;;;;;;4983571;28;20173;-68
2021/12/03 07:52:15;;;;;;;7.50;3.70;;;;;;;;;;4984519;28;20022;-69
2021/12/03 07:54:41;;;;;;;5.30;2.95;;;1.10;99.90;;;;;;5007361;28;20033;-70
2021/12/03 07:57:06;;;;;;;17.20;5.25;;;1.30;99.90;;;;;;5007568;28;20026;-69
2021/12/03 07:59:32;;;;;;;7.78;4.18;;;1.40;99.90;;;;;;5008890;28;20057;-70
2021/12/03 08:01:58;;;;;;;12.07;2.47;;;1.70;99.90;;;;;;5008605;28;20033;-70
2021/12/03 08:04:24;;;;;;;9.55;3.65;;;;;;;;;;5008313;28;20026;-70
2021/12/03 08:06:53;;;;;;;11.63;3.22;;;;;;;;;;5001415;28;20045;-69
2021/12/03 08:09:18;;;;;;;4.38;3.30;;;1.70;99.90;;;;;;4999684;28;20026;-69
2021/12/03 08:11:44;;;;;;;6.10;3.33;;;;;;;;;;5008070;28;20030;-70
2021/12/03 08:14:10;;;;;;;6.07;3.10;;;;;;;;;;5004917;28;20484;-70
2021/12/03 08:16:36;;;;;;;10.05;3.65;;;1.70;99.90;;;;;;5000054;28;20038;-69
2021/12/03 08:19:01;;;;;;;13.00;3.13;;;1.50;99.90;;;;;;4999546;28;20026;-70
2021/12/03 08:21:29;;;;;;;13.20;3.80;;;;;;;;;;4989070;28;20292;-67
2021/12/03 08:23:55;;;;;;;8.43;3.03;;;;;;;;;;4992442;28;20073;-69
2021/12/03 08:26:21;;;;;;;8.60;3.53;;;;;;;;;;5004467;28;20054;-71
2021/12/03 08:28:47;;;;;;;7.90;3.35;;;;;;;;;;4992006;28;20489;-71
2021/12/03 08:31:16;;;;;;;7.47;2.38;;;;;;;;;;5004470;28;20073;-69
2021/12/03 08:33:43;;;;;;;8.98;3.83;;;1.50;99.90;;;;;;4988446;28;20399;-72
2021/12/03 08:36:09;;;;;;;8.10;3.95;;;;;;;;;;5009204;28;20026;-70
2021/12/03 08:38:35;;;;;;;9.98;3.72;;;1.90;99.90;;;;;;5002792;28;20372;-69
2021/12/03 08:41:01;;;;;;;6.07;3.58;;;;;;;;;;5008526;28;20057;-70
2021/12/03 08:43:27;;;;;;;7.30;3.08;;;1.90;99.90;;;;;;4995059;28;20030;-68
2021/12/03 08:45:55;;;;;;;9.43;3.35;;;;;;;;;;5004617;28;20563;-70
2021/12/03 08:48:23;;;;;;;6.20;3.60;;;1.70;99.90;;;;;;5008472;28;20064;-71
2021/12/03 08:51:06;;;;;;;6.93;2.90;;;1.90;99.90;;;;;;4990565;28;20029;-67
2021/12/03 08:56:16;;;;;;;12.73;2.40;;;2.00;99.90;;;;;;5001304;28;20088;-67
2021/12/03 08:58:42;;;;;;;9.18;2.47;;;2.20;99.90;;;;;;5000643;28;20476;-66
2021/12/03 09:01:11;;;;;;;6.88;3.47;;;;;;;;;;4999710;28;20034;-67
2021/12/03 09:03:37;;;;;;;4.60;2.28;;;2.30;99.90;;;;;;4993390;28;20048;-66
2021/12/03 09:06:02;;;;;;;6.85;3.28;;;;;;;;;;5006996;28;20484;-67
2021/12/03 09:08:28;;;;;;;6.72;2.47;;;2.10;99.90;;;;;;4982768;28;20033;-68
2021/12/03 09:10:54;;;;;;;5.10;2.67;;;;;;;;;;5007214;28;20405;-71
2021/12/03 09:13:20;;;;;;;6.30;3.28;;;2.40;99.90;;;;;;4990336;28;20057;-67
2021/12/03 09:15:56;;;;;;;5.43;2.78;;;2.50;99.90;;;;;;5006613;28;20028;-68
2021/12/03 09:20:57;;;;;;;9.60;2.97;;;1.10;99.90;;;;;;4990776;28;20021;-68
2021/12/03 09:26:16;;;;;;;9.57;3.03;;;2.30;99.90;;;;;;4987871;28;20076;-68
2021/12/03 09:28:49;;;;;;;5.50;2.60;;;4.00;99.90;;;;;;4999770;28;20101;-68
2021/12/03 09:31:16;;;;;;;7.80;2.47;;;2.60;99.90;;;;;;5006506;28;20522;-72
2021/12/03 09:33:46;;;;;;;3.55;2.33;;;2.50;99.90;;;;;;5006282;28;20060;-68
2021/12/03 09:36:12;;;;;;;7.68;2.78;;;;;;;;;;4989205;28;20029;-69
2021/12/03 09:38:38;;;;;;;5.35;2.13;;;2.30;99.90;;;;;;5020008;28;20037;-68
2021/12/03 09:41:06;;;;;;;6.72;1.67;;;2.60;99.90;;;;;;5008017;28;20091;-69
2021/12/03 09:43:34;;;;;;;9.68;2.30;;;2.80;99.90;;;;;;5005517;28;20026;-69
2021/12/03 09:46:08;;;;;;;3.47;1.98;;;2.90;99.90;;;;;;4987957;28;20389;-66
2021/12/03 09:48:49;;;;;;;;;;;2.90;99.90;;;;;;5005893;28;20160;-69
2021/12/03 09:51:15;;;;;;;7.55;2.15;;;2.80;99.90;;;;;;5006951;28;19952;-66
2021/12/03 09:56:12;;;;;;;5.80;2.17;;;3.00;99.90;;;;;;5003115;28;20022;-68
2021/12/03 09:59:17;;;;;;;4.63;2.30;;;3.10;99.90;;;;;;5005056;28;20025;-67
2021/12/03 10:18:12;;;;;;;10.27;2.20;;;2.90;99.90;;;;;;5004651;28;20022;-68
2021/12/03 10:37:10;;;;;;;4.07;1.60;;;;;;;;;;5004360;28;20092;-68
2021/12/03 10:39:55;;;;;;;3.95;2.03;;;;;;;;;;5006365;28;20024;-71
2021/12/03 10:52:55;;;;;;;2.88;1.48;;;3.20;99.90;;;;;;5008186;28;20092;-70
2021/12/03 11:04:33;;;;;;;6.55;2.00;;;3.50;99.90;;;;;;5029193;28;20241;-70
2021/12/03 11:07:05;;;;;;;4.45;1.75;;;3.50;99.90;;;;;;5019902;28;20056;-70
2021/12/03 11:18:28;;;;;;;2.67;1.60;;;;;;;;;;5023226;28;20037;-71
2021/12/03 11:27:29;;;;;;;4.73;1.50;;;4.50;99.90;;;;;;4942971;29;20071;-69
2021/12/03 11:40:39;;;;;;;7.50;1.33;;;6.90;99.90;;;;;;5010951;28;20025;-68
2021/12/03 12:00:05;;;;;;;2.65;1.33;;;7.30;99.90;;;;;;5020761;28;20035;-70
2021/12/03 12:03:26;;;;;;;2.95;1.30;;;7.50;99.90;;;;;;5014754;28;20036;-69
2021/12/03 12:36:05;;;;;;;9.25;2.08;;;4.90;99.90;;;;;;5013180;28;20029;-66
2021/12/03 12:39:27;;;;;;;6.38;1.90;;;4.90;99.90;;;;;;5023514;28;20160;-66
2021/12/03 12:42:04;;;;;;;7.32;2.08;;;4.70;99.90;;;;;;5009099;28;20038;-70
2021/12/03 13:05:38;;;;;;;7.93;2.75;;;4.40;99.90;;;;;;5022035;28;20034;-68
2021/12/03 13:13:01;;;;;;;8.52;2.92;;;3.90;99.90;;;;;;5017872;28;20045;-70
2021/12/03 13:24:35;;;;;;;9.35;3.42;;;4.30;99.90;;;;;;5000809;28;20330;-70
2021/12/03 13:27:44;;;;;;;12.20;3.60;;;4.40;99.90;;;;;;5014998;28;20180;-68
2021/12/03 13:36:19;;;;;;;5.82;3.53;;;4.10;99.90;;;;;;5016788;28;20041;-69
2021/12/03 13:59:58;;;;;;;6.93;5.47;;;3.50;99.90;;;;;;5024187;28;20268;-74
2021/12/03 14:19:22;;;;;;;11.73;5.73;;;3.20;99.90;;;;;;5019880;28;20040;-70
2021/12/03 14:36:31;;;;;;;16.45;8.50;;;3.00;99.90;;;;;;5021797;28;20033;-69
2021/12/03 14:48:37;;;;;;;12.93;8.43;;;2.80;99.90;;;;;;5015958;28;20038;-69
2021/12/03 14:56:13;;;;;;;10.27;7.00;;;2.80;99.90;;;;;;5017835;28;20085;-70
2021/12/03 14:58:54;;;;;;;13.95;7.68;;;3.00;99.90;;;;;;5014160;28;20111;-75
2021/12/03 15:01:31;;;;;;;30.00;8.15;;;2.90;99.90;;;;;;5018016;28;20033;-74
2021/12/03 15:04:27;;;;;;;16.92;8.10;;;3.00;99.90;;;;;;5007408;28;20164;-75
2021/12/03 15:07:17;;;;;;;11.60;7.47;;;3.00;99.90;;;;;;5015667;28;20022;-70
2021/12/03 15:09:46;;;;;;;9.68;6.68;;;3.00;99.90;;;;;;5011804;28;20025;-73
2021/12/03 15:12:47;;;;;;;10.27;6.72;;;3.00;99.90;;;;;;5017857;28;20438;-74
2021/12/03 15:28:08;;;;;;;12.13;5.82;;;3.10;99.90;;;;;;5018511;28;20547;-67
2021/12/03 15:30:51;;;;;;;8.95;5.78;;;3.10;99.90;;;;;;5016027;28;20708;-69
2021/12/03 15:55:06;;;;;;;11.52;7.78;;;2.90;99.90;;;;;;4982550;28;20998;-72
2021/12/03 15:57:44;;;;;;;14.23;8.07;;;2.90;99.90;;;;;;4975103;28;20610;-71
2021/12/03 16:06:17;;;;;;;18.52;8.50;;;2.90;99.90;;;;;;4979215;28;20049;-71
2021/12/03 16:08:27;;;;;;;13.50;8.52;;;2.90;99.90;;;;;;4981251;28;20093;-70
2021/12/03 16:21:42;;;;;;;10.57;6.72;;;2.80;99.90;;;;;;5017284;28;20446;-70
2021/12/03 16:43:39;;;;;;;13.25;7.93;;;3.20;99.90;;;;;;5020452;28;20147;-74
2021/12/03 16:49:33;;;;;;;13.70;7.20;;;2.60;99.90;;;;;;5013015;28;20056;-72
2021/12/03 16:51:52;;;;;;;10.25;6.53;;;2.70;99.90;;;;;;5017784;28;20034;-77
2021/12/03 16:54:26;;;;;;;;;;;2.70;99.90;;;;;;5022544;28;20033;-76
2021/12/03 16:56:54;;;;;;;17.60;5.85;;;2.80;99.90;;;;;;5011381;28;19916;-74
2021/12/03 16:59:20;;;;;;;8.88;5.13;;;2.70;99.90;;;;;;5021749;28;20468;-71
2021/12/03 17:01:53;;;;;;;8.35;5.40;;;2.80;99.90;;;;;;5036695;23;20427;-72
2021/12/03 17:12:24;;;;;;;16.85;5.05;;;;;;;;;;5017745;28;20105;-71
2021/12/03 17:47:35;;;;;;;9.23;3.90;;;2.60;99.90;;;;;;5009775;28;20026;-71
2021/12/03 17:55:32;;;;;;;21.67;5.95;;;2.80;99.90;;;;;;5011223;28;20076;-69
2021/12/03 17:58:02;;;;;;;5.18;4.00;;;2.60;99.90;;;;;;5009302;28;20026;-74
2021/12/03 18:03:15;;;;;;;6.75;3.47;;;2.50;99.90;;;;;;5165293;23;10001570;-67
2021/12/03 18:51:22;;;;;;;9.43;4.88;;;;;;;;;;4968837;28;20035;-71
2021/12/03 18:53:55;;;;;;;9.13;4.65;;;1.20;99.90;;;;;;4969567;28;20090;-71
2021/12/03 18:56:31;;;;;;;18.48;6.28;;;2.60;99.90;;;;;;4974279;28;20113;-69
2021/12/03 18:59:00;;;;;;;9.20;5.18;;;2.60;99.90;;;;;;4972427;28;20122;-69
2021/12/03 19:01:28;;;;;;;5.63;5.03;;;2.50;99.90;;;;;;4973697;28;20019;-70
2021/12/03 19:04:15;;;;;;;5.03;4.25;;;2.40;99.90;;;;;;4972702;28;20061;-70
2021/12/03 19:06:53;;;;;;;10.13;3.88;;;2.40;99.90;;;;;;4973827;28;20118;-71
2021/12/03 19:09:23;;;;;;;5.22;4.03;;;2.50;99.90;;;;;;4972394;28;20034;-72
2021/12/03 19:12:14;;;;;;;7.95;4.80;;;2.20;99.90;;;;;;4972090;28;20035;-71
2021/12/03 19:14:48;;;;;;;9.15;5.47;;;2.30;99.90;;;;;;4966582;28;20027;-69
2021/12/03 19:17:14;;;;;;;12.35;6.78;;;2.30;99.90;;;;;;4972677;28;20027;-69
2021/12/03 19:19:44;;;;;;;11.68;5.45;;;2.30;99.90;;;;;;4970887;28;20030;-70
2021/12/03 19:22:11;;;;;;;7.68;5.32;;;2.30;99.90;;;;;;4972783;28;20495;-70
2021/12/03 19:24:37;;;;;;;11.07;4.90;;;2.40;99.90;;;;;;4972372;28;20472;-73
2021/12/03 19:27:04;;;;;;;6.85;4.35;;;2.40;99.90;;;;;;4972773;28;20045;-71
2021/12/03 19:29:33;;;;;;;15.55;5.18;;;2.30;99.90;;;;;;4972210;28;20023;-71
2021/12/03 19:31:59;;;;;;;14.20;5.68;;;;;;;;;;4971894;28;20118;-69
2021/12/03 19:34:25;;;;;;;8.95;5.80;;;2.50;99.90;;;;;;4972849;28;20492;-69
2021/12/03 19:36:52;;;;;;;7.45;5.57;;;2.60;99.90;;;;;;4971970;28;20031;-68
2021/12/03 19:39:20;;;;;;;10.27;4.68;;;2.70;99.90;;;;;;4972422;28;20047;-72
2021/12/03 19:44:22;;;;;;;8.25;5.10;;;2.80;99.90;;;;;;4971679;28;20042;-71
2021/12/03 19:46:51;;;;;;;5.53;4.82;;;2.80;99.90;;;;;;4971723;28;20512;-71
2021/12/03 19:51:57;;;;;;;7.53;4.80;;;2.80;99.90;;;;;;4972068;28;20062;-70
2021/12/03 19:54:23;;;;;;;10.52;5.15;;;2.80;99.90;;;;;;4972435;28;20109;-68
2021/12/03 19:56:50;;;;;;;6.05;3.95;;;2.80;99.90;;;;;;4972139;28;20023;-69
2021/12/03 19:59:18;;;;;;;6.43;3.88;;;2.80;99.90;;;;;;4971940;28;20476;-70
2021/12/03 20:01:45;;;;;;;8.63;4.18;;;2.80;99.90;;;;;;4971263;28;20030;-69
2021/12/03 20:04:13;;;;;;;6.72;3.58;;;2.80;99.90;;;;;;4975302;28;20061;-70
2021/12/03 20:06:41;;;;;;;7.32;4.50;;;2.80;99.90;;;;;;4972503;28;20092;-73